createdAt,value
2022-12-03T00:01:02.957Z,91.58
2022-12-03T00:03:35.997Z,91.54
2022-12-03T00:06:03.366Z,91.97
2022-12-03T00:08:34.900Z,91.96
2022-12-03T00:11:03.328Z,92.21
2022-12-03T00:13:30.402Z,92.41
2022-12-03T00:15:59.205Z,91.88
2022-12-03T00:18:25.985Z,92.20
2022-12-03T00:20:52.975Z,92.34
2022-12-03T00:23:19.778Z,91.81
2022-12-03T00:25:46.729Z,92.11
2022-12-03T00:28:13.679Z,92.60
2022-12-03T00:30:40.635Z,92.79
2022-12-03T00:33:07.481Z,92.77
2022-12-03T00:35:34.407Z,92.40
2022-12-03T00:38:01.460Z,93.18
2022-12-03T00:40:28.322Z,92.66
2022-12-03T00:42:56.048Z,93.02
2022-12-03T00:45:22.692Z,93.53
2022-12-03T00:47:49.496Z,92.72
2022-12-03T00:50:18.740Z,92.95
2022-12-03T00:52:48.126Z,93.60
2022-12-03T00:55:19.537Z,93.63
2022-12-03T00:57:46.161Z,93.56
2022-12-03T01:00:13.830Z,93.49
2022-12-03T01:02:40.509Z,93.21
2022-12-03T01:05:07.759Z,93.38
2022-12-03T01:07:35.126Z,93.86
2022-12-03T01:10:04.734Z,93.32
2022-12-03T01:12:32.395Z,93.79
2022-12-03T01:14:59.377Z,93.81
2022-12-03T01:17:26.267Z,93.61
2022-12-03T01:19:56.197Z,94.04
2022-12-03T01:22:25.930Z,94.21
2022-12-03T01:24:53.010Z,94.00
2022-12-03T01:27:19.761Z,93.63
2022-12-03T01:29:46.690Z,93.58
2022-12-03T01:32:22.340Z,93.88
2022-12-03T01:34:51.925Z,94.09
2022-12-03T01:37:20.474Z,94.35
2022-12-03T01:39:47.179Z,93.89
2022-12-03T01:42:26.839Z,93.96
2022-12-03T01:44:57.604Z,94.54
2022-12-03T01:47:33.993Z,94.69
2022-12-03T01:50:06.161Z,94.36
2022-12-03T01:52:36.947Z,94.88
2022-12-03T01:55:07.904Z,94.51
2022-12-03T01:57:58.228Z,94.86
2022-12-03T02:00:31.042Z,94.67
2022-12-03T02:03:04.443Z,94.50
2022-12-03T02:05:33.286Z,94.98
2022-12-03T02:08:00.585Z,95.27
2022-12-03T02:10:36.155Z,95.27
2022-12-03T02:13:09.155Z,95.18
2022-12-03T02:15:37.989Z,95.21
2022-12-03T02:18:04.893Z,94.92
2022-12-03T02:20:39.472Z,95.08
2022-12-03T02:23:13.469Z,94.92
2022-12-03T02:25:40.417Z,95.19
2022-12-03T02:28:09.000Z,94.92
2022-12-03T02:30:36.978Z,95.18
2022-12-03T02:33:06.433Z,95.20
2022-12-03T02:35:35.453Z,95.12
2022-12-03T02:38:21.730Z,95.04
2022-12-03T02:40:52.453Z,95.36
2022-12-03T02:43:20.758Z,95.65
2022-12-03T02:45:51.921Z,95.38
2022-12-03T02:48:26.367Z,95.44
2022-12-03T02:50:56.350Z,95.49
2022-12-03T02:53:45.125Z,96.03
2022-12-03T02:56:15.168Z,95.61
2022-12-03T02:58:47.342Z,95.57
2022-12-03T03:01:16.029Z,95.62
2022-12-03T03:03:44.862Z,95.83
2022-12-03T03:06:12.186Z,96.13
2022-12-03T03:08:40.601Z,96.32
2022-12-03T03:11:11.438Z,95.56
2022-12-03T03:13:39.188Z,96.26
2022-12-03T03:16:07.429Z,96.22
2022-12-03T03:18:34.910Z,96.07
2022-12-03T03:21:04.941Z,95.64
2022-12-03T03:23:32.356Z,96.32
2022-12-03T03:26:06.560Z,95.56
2022-12-03T03:28:35.919Z,95.93
2022-12-03T03:31:05.242Z,96.12
2022-12-03T03:33:32.879Z,96.02
2022-12-03T03:36:00.779Z,95.77
2022-12-03T03:38:29.856Z,96.22
2022-12-03T03:40:59.857Z,95.72
2022-12-03T03:43:30.210Z,96.08
2022-12-03T03:45:57.578Z,96.36
2022-12-03T03:48:24.351Z,96.04
2022-12-03T03:50:52.360Z,96.00
2022-12-03T03:53:21.261Z,95.89
2022-12-03T03:55:48.034Z,96.36
2022-12-03T03:58:14.529Z,95.66
2022-12-03T04:00:46.457Z,96.15
2022-12-03T04:03:14.624Z,95.80
2022-12-03T04:05:41.547Z,96.03
2022-12-03T04:08:08.112Z,96.59
2022-12-03T04:10:54.146Z,96.56
2022-12-03T04:13:23.165Z,96.32
2022-12-03T04:15:49.924Z,96.28
2022-12-03T04:18:35.049Z,96.27
2022-12-03T04:21:20.340Z,96.12
2022-12-03T04:23:49.444Z,96.44
2022-12-03T04:26:35.119Z,95.91
2022-12-03T04:29:03.240Z,95.89
2022-12-03T04:31:48.905Z,95.94
2022-12-03T04:34:36.013Z,95.96
2022-12-03T04:37:03.553Z,96.48
2022-12-03T04:39:30.076Z,96.33
2022-12-03T04:41:56.717Z,96.34
2022-12-03T04:44:38.836Z,95.95
2022-12-03T04:47:07.744Z,95.56
2022-12-03T04:49:36.077Z,95.80
2022-12-03T04:52:03.356Z,95.72
2022-12-03T04:54:30.506Z,95.89
2022-12-03T04:56:57.779Z,95.84
2022-12-03T04:59:24.427Z,96.09
2022-12-03T05:01:51.836Z,96.11
2022-12-03T05:04:21.448Z,95.62
2022-12-03T05:06:51.298Z,95.69
2022-12-03T05:09:17.913Z,96.09
2022-12-03T05:11:45.416Z,96.34
2022-12-03T05:14:12.093Z,95.83
2022-12-03T05:16:44.726Z,96.00
2022-12-03T05:19:13.229Z,95.61
2022-12-03T05:21:39.583Z,96.00
2022-12-03T05:24:07.881Z,95.99
2022-12-03T05:26:35.206Z,95.97
2022-12-03T05:29:02.908Z,95.90
2022-12-03T05:31:29.573Z,96.26
2022-12-03T05:33:56.168Z,96.55
2022-12-03T05:36:22.841Z,96.11
2022-12-03T05:38:53.212Z,96.85
2022-12-03T05:41:39.184Z,96.42
2022-12-03T05:44:06.673Z,96.71
2022-12-03T05:46:34.436Z,96.75
2022-12-03T05:49:05.441Z,96.08
2022-12-03T05:51:32.715Z,96.80
2022-12-03T05:54:00.442Z,96.20
2022-12-03T05:56:31.008Z,96.36
2022-12-03T05:58:58.029Z,96.17
2022-12-03T06:01:24.862Z,95.93
2022-12-03T06:03:51.727Z,96.46
2022-12-03T06:06:20.828Z,95.97
2022-12-03T06:08:47.349Z,95.77
2022-12-03T06:11:14.654Z,95.53
2022-12-03T06:13:41.157Z,95.49
2022-12-03T06:16:07.760Z,95.34
2022-12-03T06:18:34.919Z,95.81
2022-12-03T06:21:01.391Z,95.88
2022-12-03T06:23:29.229Z,95.21
2022-12-03T06:25:56.463Z,95.65
2022-12-03T06:28:24.912Z,95.93
2022-12-03T06:30:54.897Z,95.20
2022-12-03T06:33:21.722Z,95.34
2022-12-03T06:35:49.022Z,95.15
2022-12-03T06:38:15.548Z,95.92
2022-12-03T06:40:43.551Z,95.33
2022-12-03T06:43:10.115Z,95.20
2022-12-03T06:45:36.663Z,95.37
2022-12-03T06:48:05.961Z,95.19
2022-12-03T06:50:32.544Z,95.11
2022-12-03T06:52:59.818Z,94.85
2022-12-03T06:55:27.988Z,94.96
2022-12-03T06:57:54.876Z,95.45
2022-12-03T07:00:22.542Z,95.24
2022-12-03T07:02:49.875Z,94.73
2022-12-03T07:05:16.974Z,95.35
2022-12-03T07:07:52.477Z,95.02
2022-12-03T07:10:20.267Z,95.16
2022-12-03T07:12:46.988Z,94.94
2022-12-03T07:15:16.044Z,95.39
2022-12-03T07:17:43.364Z,94.95
2022-12-03T07:20:11.279Z,95.24
2022-12-03T07:22:38.653Z,95.27
2022-12-03T07:25:06.215Z,95.29
2022-12-03T07:27:32.904Z,94.67
2022-12-03T07:29:59.602Z,95.29
2022-12-03T07:32:26.458Z,94.59
2022-12-03T07:34:53.215Z,94.69
2022-12-03T07:37:23.613Z,95.55
2022-12-03T07:39:53.361Z,95.02
2022-12-03T07:42:22.774Z,95.47
2022-12-03T07:44:49.287Z,95.79
2022-12-03T07:47:16.543Z,95.67
2022-12-03T07:49:46.362Z,95.28
2022-12-03T07:52:13.199Z,95.64
2022-12-03T07:54:41.184Z,95.26
2022-12-03T07:57:07.735Z,96.03
2022-12-03T07:59:34.568Z,95.69
2022-12-03T08:02:02.432Z,95.63
2022-12-03T08:04:29.128Z,95.32
2022-12-03T08:06:55.860Z,95.34
2022-12-03T08:09:22.580Z,95.31
2022-12-03T08:11:52.241Z,95.60
2022-12-03T08:14:22.649Z,95.76
2022-12-03T08:16:49.342Z,95.81
2022-12-03T08:19:18.052Z,95.90
2022-12-03T08:21:45.464Z,95.93
2022-12-03T08:24:19.729Z,95.64
2022-12-03T08:26:49.612Z,95.98
2022-12-03T08:29:19.663Z,96.21
2022-12-03T08:31:49.993Z,95.72
2022-12-03T08:34:22.662Z,96.27
2022-12-03T08:37:06.208Z,95.88
2022-12-03T08:39:44.547Z,96.19
2022-12-03T08:42:31.746Z,96.54
2022-12-03T08:45:21.272Z,95.93
2022-12-03T08:47:51.184Z,95.58
2022-12-03T08:50:40.168Z,95.97
2022-12-03T08:53:28.621Z,95.84
2022-12-03T08:55:57.812Z,95.92
2022-12-03T08:58:36.846Z,95.77
2022-12-03T09:01:12.579Z,96.00
2022-12-03T09:03:51.447Z,95.50
2022-12-03T09:06:18.140Z,96.07
2022-12-03T09:08:44.725Z,95.66
2022-12-03T09:11:13.771Z,95.20
2022-12-03T09:13:43.408Z,95.63
2022-12-03T09:16:10.395Z,95.89
2022-12-03T09:18:37.357Z,95.67
2022-12-03T09:21:05.041Z,95.48
2022-12-03T09:23:31.813Z,95.80
2022-12-03T09:25:59.285Z,95.66
2022-12-03T09:28:26.792Z,95.56
2022-12-03T09:30:54.474Z,95.92
2022-12-03T09:33:21.378Z,95.82
2022-12-03T09:35:48.069Z,95.15
2022-12-03T09:38:14.632Z,95.12
2022-12-03T09:40:41.846Z,95.41
2022-12-03T09:43:09.261Z,94.78
2022-12-03T09:45:36.781Z,94.49
2022-12-03T09:48:04.232Z,93.59
2022-12-03T09:53:54.408Z,92.98
2022-12-03T09:56:23.060Z,92.78
2022-12-03T09:58:50.677Z,92.67
2022-12-03T10:01:18.246Z,92.67
2022-12-03T10:03:47.928Z,92.90
2022-12-03T10:06:18.807Z,93.26
2022-12-03T10:08:48.718Z,93.47
2022-12-03T10:11:17.231Z,93.44
2022-12-03T10:13:48.445Z,93.80
2022-12-03T10:16:18.355Z,93.28
2022-12-03T10:18:48.985Z,93.60
2022-12-03T10:21:31.317Z,93.42
2022-12-03T10:24:25.804Z,93.53
2022-12-03T10:26:54.499Z,94.26
2022-12-03T10:29:31.647Z,93.73
2022-12-03T10:32:09.548Z,94.51
2022-12-03T10:34:41.353Z,93.91
2022-12-03T10:37:22.362Z,94.57
2022-12-03T10:40:02.445Z,93.98
2022-12-03T10:42:35.108Z,93.96
2022-12-03T10:45:28.806Z,94.55
2022-12-03T10:48:15.146Z,93.92
2022-12-03T10:51:04.809Z,94.16
2022-12-03T10:53:36.031Z,94.28
2022-12-03T10:56:06.010Z,94.02
2022-12-03T10:58:38.163Z,93.40
2022-12-03T11:01:21.452Z,93.48
2022-12-03T11:03:48.693Z,94.08
2022-12-03T11:06:21.639Z,94.15
2022-12-03T11:08:56.775Z,93.90
2022-12-03T11:11:25.057Z,93.66
2022-12-03T11:13:58.720Z,93.43
2022-12-03T11:16:53.560Z,93.24
2022-12-03T11:19:40.226Z,93.57
2022-12-03T11:22:06.694Z,93.74
2022-12-03T11:24:35.813Z,93.26
2022-12-03T11:27:02.293Z,93.19
2022-12-03T11:29:54.678Z,93.64
2022-12-03T11:33:00.533Z,93.56
2022-12-03T11:35:35.748Z,93.53
2022-12-03T11:38:37.349Z,92.78
2022-12-03T11:41:17.254Z,92.60
2022-12-03T11:44:00.621Z,92.52
2022-12-03T11:46:38.784Z,92.75
2022-12-03T11:49:32.769Z,92.11
2022-12-03T11:52:01.724Z,92.75
2022-12-03T11:54:29.111Z,92.70
2022-12-03T11:56:56.655Z,92.19
2022-12-03T11:59:23.788Z,91.90
2022-12-03T12:01:50.406Z,92.34
2022-12-03T12:04:35.642Z,91.87
2022-12-03T12:07:02.846Z,92.17
2022-12-03T12:09:54.159Z,92.38
2022-12-03T12:12:28.657Z,92.11
2022-12-03T12:14:55.958Z,91.95
2022-12-03T12:17:36.531Z,91.55
2022-12-03T12:20:24.944Z,92.38
2022-12-03T12:22:54.815Z,92.45
2022-12-03T12:25:35.924Z,91.73
2022-12-03T12:28:05.407Z,92.03
2022-12-03T12:30:33.843Z,91.83
2022-12-03T12:33:16.776Z,91.78
2022-12-03T12:35:43.494Z,91.83
2022-12-03T12:38:11.322Z,91.87
2022-12-03T12:40:42.674Z,91.67
2022-12-03T12:43:25.210Z,92.31
2022-12-03T12:45:56.720Z,91.87
2022-12-03T12:48:29.272Z,92.38
2022-12-03T12:51:06.553Z,92.38
2022-12-03T12:53:35.291Z,92.21
2022-12-03T12:56:27.915Z,92.53
2022-12-03T12:58:57.273Z,91.86
2022-12-03T13:01:30.070Z,92.79
2022-12-03T13:03:57.293Z,92.17
2022-12-03T13:06:29.459Z,92.65
2022-12-03T13:08:57.939Z,92.46
2022-12-03T13:11:24.789Z,92.11
2022-12-03T13:13:55.542Z,92.17
2022-12-03T13:16:32.644Z,92.46
2022-12-03T13:19:01.017Z,92.54
2022-12-03T13:21:42.297Z,92.68
2022-12-03T13:24:39.273Z,92.43
2022-12-03T13:27:29.905Z,93.04
2022-12-03T13:30:02.554Z,92.97
2022-12-03T13:32:35.877Z,93.04
2022-12-03T13:35:26.304Z,93.00
2022-12-03T13:37:53.489Z,93.40
2022-12-03T13:40:35.059Z,93.40
2022-12-03T13:43:12.363Z,93.91
2022-12-03T13:45:55.338Z,93.60
2022-12-03T13:48:34.516Z,93.78
2022-12-03T13:51:23.162Z,94.05
2022-12-03T13:53:50.060Z,94.20
2022-12-03T13:56:29.538Z,94.79
2022-12-03T13:58:58.351Z,94.10
2022-12-03T14:01:27.428Z,94.25
2022-12-03T14:03:54.675Z,94.65
2022-12-03T14:06:24.180Z,94.63
2022-12-03T14:08:51.446Z,94.85
2022-12-03T14:11:36.651Z,94.51
2022-12-03T14:14:03.479Z,94.82
2022-12-03T14:16:30.388Z,94.72
2022-12-03T14:18:57.513Z,95.02
2022-12-03T14:21:24.297Z,95.04
2022-12-03T14:23:51.045Z,94.94
2022-12-03T14:26:17.592Z,94.74
2022-12-03T14:28:44.412Z,94.79
2022-12-03T14:31:13.421Z,94.73
2022-12-03T14:33:40.352Z,94.58
2022-12-03T14:36:09.298Z,94.80
2022-12-03T14:38:38.056Z,94.29
2022-12-03T14:41:04.834Z,94.38
2022-12-03T14:43:31.486Z,94.52
2022-12-03T14:45:58.328Z,94.04
2022-12-03T14:48:25.126Z,94.27
2022-12-03T14:50:53.159Z,94.13
2022-12-03T14:53:24.111Z,94.01
2022-12-03T14:55:56.260Z,93.40
2022-12-03T14:58:26.935Z,93.33
2022-12-03T15:00:53.869Z,93.28
2022-12-03T15:03:23.893Z,93.97
2022-12-03T15:05:52.119Z,93.62
2022-12-03T15:08:19.553Z,93.37
2022-12-03T15:10:46.525Z,93.27
2022-12-03T15:13:13.801Z,93.70
2022-12-03T15:15:41.009Z,93.51
2022-12-03T15:18:07.995Z,93.80
2022-12-03T15:20:38.780Z,93.14
2022-12-03T15:23:08.886Z,93.30
2022-12-03T15:25:40.534Z,93.27
2022-12-03T15:28:07.829Z,93.33
2022-12-03T15:30:39.719Z,93.45
2022-12-03T15:33:06.443Z,93.37
2022-12-03T15:35:33.998Z,93.59
2022-12-03T15:38:00.989Z,93.57
2022-12-03T15:40:27.843Z,93.52
2022-12-03T15:42:57.090Z,93.95
2022-12-03T15:45:23.589Z,93.60
2022-12-03T15:47:50.178Z,93.73
2022-12-03T15:50:17.634Z,93.72
2022-12-03T15:52:45.255Z,94.08
2022-12-03T15:55:27.765Z,94.23
2022-12-03T15:57:54.761Z,94.03
2022-12-03T16:00:24.439Z,94.11
2022-12-03T16:02:53.068Z,94.03
2022-12-03T16:05:20.483Z,94.11
2022-12-03T16:07:49.198Z,94.58
2022-12-03T16:10:18.150Z,94.42
2022-12-03T16:12:45.732Z,94.47
2022-12-03T16:15:12.721Z,94.38
2022-12-03T16:17:39.803Z,94.37
2022-12-03T16:20:07.603Z,94.24
2022-12-03T16:22:35.515Z,94.82
2022-12-03T16:25:07.525Z,94.54
2022-12-03T16:27:37.976Z,94.71
2022-12-03T16:30:06.736Z,94.50
2022-12-03T16:32:33.667Z,94.85
2022-12-03T16:35:00.173Z,94.32
2022-12-03T16:37:30.187Z,94.75
2022-12-03T16:39:57.951Z,94.67
2022-12-03T16:42:24.747Z,94.25
2022-12-03T16:44:55.153Z,94.66
2022-12-03T16:47:22.643Z,94.33
2022-12-03T16:49:49.897Z,94.65
2022-12-03T16:52:17.441Z,94.47
2022-12-03T16:54:44.830Z,94.78
2022-12-03T16:57:13.664Z,94.66
2022-12-03T16:59:41.614Z,94.70
2022-12-03T17:02:09.069Z,94.70
2022-12-03T17:04:36.387Z,94.78
2022-12-03T17:07:03.666Z,95.05
2022-12-03T17:09:33.633Z,94.41
2022-12-03T17:12:02.075Z,94.56
2022-12-03T17:14:33.236Z,94.78
2022-12-03T17:17:00.557Z,94.73
2022-12-03T17:19:27.242Z,95.21
2022-12-03T17:21:54.321Z,94.98
2022-12-03T17:24:21.495Z,95.01
2022-12-03T17:26:48.063Z,94.88
2022-12-03T17:29:18.123Z,94.95
2022-12-03T17:31:47.322Z,95.01
2022-12-03T17:34:14.652Z,95.47
2022-12-03T17:36:41.474Z,95.27
2022-12-03T17:39:08.000Z,95.17
2022-12-03T17:41:37.856Z,95.82
2022-12-03T17:44:10.163Z,95.34
2022-12-03T17:46:38.574Z,95.27
2022-12-03T17:49:05.550Z,95.67
2022-12-03T17:51:35.402Z,95.53
2022-12-03T17:54:02.375Z,94.94
2022-12-03T17:56:29.342Z,95.64
2022-12-03T17:58:57.252Z,95.42
2022-12-03T18:01:24.083Z,95.43
2022-12-03T18:03:50.671Z,95.44
2022-12-03T18:06:17.270Z,95.54
2022-12-03T18:08:43.770Z,94.81
2022-12-03T18:11:10.312Z,94.92
2022-12-03T18:13:37.940Z,95.14
2022-12-03T18:16:09.898Z,95.45
2022-12-03T18:18:36.796Z,95.21
2022-12-03T18:21:05.659Z,94.85
2022-12-03T18:23:33.300Z,95.09
2022-12-03T18:26:00.472Z,95.24
2022-12-03T18:28:27.805Z,95.23
2022-12-03T18:30:54.692Z,95.65
2022-12-03T18:33:24.727Z,95.17
2022-12-03T18:35:54.685Z,95.42
2022-12-03T18:38:22.624Z,94.98
2022-12-03T18:40:53.718Z,95.03
2022-12-03T18:43:20.262Z,94.93
2022-12-03T18:45:49.519Z,95.30
2022-12-03T18:48:20.036Z,95.15
2022-12-03T18:50:48.165Z,95.00
2022-12-03T18:53:17.705Z,95.03
2022-12-03T18:55:46.700Z,94.60
2022-12-03T18:58:16.657Z,94.96
2022-12-03T19:00:43.382Z,94.63
2022-12-03T19:03:11.049Z,94.73
2022-12-03T19:05:37.732Z,94.90
2022-12-03T19:08:12.975Z,94.41
2022-12-03T19:10:40.038Z,94.74
2022-12-03T19:13:09.024Z,94.49
2022-12-03T19:15:41.162Z,94.56
2022-12-03T19:18:07.997Z,94.89
2022-12-03T19:20:34.899Z,94.58
2022-12-03T19:23:03.190Z,94.72
2022-12-03T19:25:29.968Z,94.69
2022-12-03T19:27:57.163Z,94.33
2022-12-03T19:30:24.039Z,93.98
2022-12-03T19:32:53.283Z,94.48
2022-12-03T19:35:21.391Z,94.50
2022-12-03T19:37:51.333Z,94.26
2022-12-03T19:40:19.444Z,94.33
2022-12-03T19:42:46.767Z,93.90
2022-12-03T19:45:14.007Z,93.93
2022-12-03T19:47:40.655Z,93.81
2022-12-03T19:50:08.552Z,93.64
2022-12-03T19:52:38.564Z,93.52
2022-12-03T19:55:05.722Z,93.64
2022-12-03T19:57:34.618Z,93.57
2022-12-03T20:00:01.281Z,93.76
2022-12-03T20:02:28.362Z,92.96
2022-12-03T20:04:56.498Z,93.29
2022-12-03T20:07:23.212Z,93.24
2022-12-03T20:09:51.359Z,93.42
2022-12-03T20:12:18.276Z,93.45
2022-12-03T20:14:45.298Z,93.31
2022-12-03T20:17:14.987Z,93.29
2022-12-03T20:19:42.484Z,93.32
2022-12-03T20:22:09.478Z,93.33
2022-12-03T20:24:36.162Z,93.45
2022-12-03T20:27:02.775Z,93.25
2022-12-03T20:29:29.815Z,93.55
2022-12-03T20:31:56.516Z,93.47
2022-12-03T20:34:25.398Z,93.05
2022-12-03T20:36:52.606Z,93.35
2022-12-03T20:39:19.225Z,93.12
2022-12-03T20:41:48.299Z,93.40
2022-12-03T20:44:14.968Z,93.09
2022-12-03T20:46:42.417Z,93.08
2022-12-03T20:49:09.190Z,93.20
2022-12-03T20:51:36.764Z,92.95
2022-12-03T20:54:03.671Z,92.98
2022-12-03T20:56:36.436Z,93.21
2022-12-03T20:59:05.550Z,92.89
2022-12-03T21:01:32.911Z,92.91
2022-12-03T21:03:59.539Z,92.83
2022-12-03T21:06:28.243Z,92.98
2022-12-03T21:08:56.691Z,93.02
2022-12-03T21:11:27.130Z,93.22
2022-12-03T21:13:54.891Z,93.14
2022-12-03T21:16:51.874Z,93.24
2022-12-03T21:19:12.494Z,93.43
2022-12-03T21:21:39.056Z,93.46
2022-12-03T21:24:06.245Z,93.28
2022-12-03T21:26:42.526Z,93.39
2022-12-03T21:29:09.186Z,93.23
2022-12-03T21:31:37.368Z,93.17
2022-12-03T21:34:05.517Z,93.20
2022-12-03T21:36:33.047Z,93.40
2022-12-03T21:38:59.836Z,93.71
2022-12-03T21:41:28.866Z,93.61
2022-12-03T21:43:55.510Z,93.68
2022-12-03T21:47:11.641Z,93.30
2022-12-03T21:49:09.408Z,93.65
2022-12-03T21:51:36.001Z,93.37
2022-12-03T21:54:05.470Z,93.83
2022-12-03T21:56:33.137Z,93.48
2022-12-03T21:58:59.705Z,93.47
2022-12-03T22:01:29.104Z,93.83
2022-12-03T22:03:56.167Z,93.91
2022-12-03T22:06:22.831Z,93.76
2022-12-03T22:08:51.651Z,93.71
2022-12-03T22:11:21.103Z,93.40
2022-12-03T22:13:51.289Z,93.57
2022-12-03T22:16:20.606Z,93.66
2022-12-03T22:18:48.031Z,93.35
2022-12-03T22:21:17.888Z,93.11
2022-12-03T22:23:45.100Z,93.48
2022-12-03T22:26:18.453Z,93.42
2022-12-03T22:28:46.881Z,93.80
2022-12-03T22:31:14.921Z,93.64
2022-12-03T22:33:42.202Z,93.94
2022-12-03T22:36:17.955Z,93.75
2022-12-03T22:38:47.425Z,93.83
2022-12-03T22:41:17.541Z,93.72
2022-12-03T22:43:45.141Z,93.97
2022-12-03T22:46:13.171Z,93.89
2022-12-03T22:48:42.483Z,93.37
2022-12-03T22:51:21.269Z,93.84
2022-12-03T22:53:53.640Z,93.64
2022-12-03T22:56:20.541Z,93.67
2022-12-03T22:58:47.600Z,93.88
2022-12-03T23:01:23.166Z,93.82
2022-12-03T23:03:50.128Z,93.55
2022-12-03T23:06:17.011Z,93.80
2022-12-03T23:08:43.902Z,94.11
2022-12-03T23:11:14.038Z,93.50
2022-12-03T23:13:40.635Z,93.65
2022-12-03T23:16:08.868Z,93.64
2022-12-03T23:18:37.104Z,93.92
2022-12-03T23:21:04.525Z,93.95
2022-12-03T23:23:31.364Z,94.06
2022-12-03T23:26:07.267Z,93.97
2022-12-03T23:28:37.588Z,93.98
2022-12-03T23:31:05.361Z,94.25
2022-12-03T23:33:38.160Z,94.40
2022-12-03T23:36:09.081Z,94.03
2022-12-03T23:38:35.968Z,93.84
2022-12-03T23:41:07.949Z,94.15
2022-12-03T23:43:34.616Z,93.94
2022-12-03T23:46:10.310Z,93.97
2022-12-03T23:48:37.703Z,94.17
2022-12-03T23:51:10.443Z,94.16
2022-12-03T23:53:39.138Z,93.98
2022-12-03T23:56:15.515Z,93.94
2022-12-03T23:58:42.286Z,94.17
